createdAt,value
2018-03-01T00:00:30.363Z,18.48
2018-03-01T00:02:57.946Z,23.10
2018-03-01T00:05:25.530Z,20.15
2018-03-01T00:07:53.113Z,14.37
2018-03-01T00:10:20.665Z,14.70
2018-03-01T00:12:48.224Z,22.20
2018-03-01T00:15:16.111Z,26.92
2018-03-01T00:17:44.472Z,17.63
2018-03-01T00:20:12.789Z,18.57
2018-03-01T00:22:40.367Z,20.53
2018-03-01T00:25:08.786Z,25.37
2018-03-01T00:27:36.374Z,22.30
2018-03-01T00:30:04.697Z,18.92
2018-03-01T00:32:32.277Z,16.65
2018-03-01T00:34:59.842Z,19.37
2018-03-01T00:37:28.156Z,17.40
2018-03-01T00:39:55.735Z,12.93
2018-03-01T00:42:24.064Z,21.42
2018-03-01T00:44:51.624Z,25.40
2018-03-01T00:47:19.963Z,17.77
2018-03-01T00:49:47.529Z,23.62
2018-03-01T00:52:15.870Z,19.13
2018-03-01T00:54:43.477Z,27.20
2018-03-01T00:57:11.045Z,26.93
2018-03-01T00:59:38.633Z,17.30
2018-03-01T01:02:06.183Z,20.00
2018-03-01T01:04:33.773Z,21.90
2018-03-01T01:07:01.326Z,20.00
2018-03-01T01:09:28.893Z,17.50
2018-03-01T01:11:56.470Z,23.47
2018-03-01T01:14:24.020Z,22.37
2018-03-01T01:16:52.344Z,19.57
2018-03-01T01:19:19.906Z,22.02
2018-03-01T01:21:48.270Z,28.73
2018-03-01T01:24:16.063Z,19.83
2018-03-01T01:26:43.635Z,18.60
2018-03-01T01:29:11.198Z,21.85
2018-03-01T01:31:38.769Z,17.10
2018-03-01T01:34:07.103Z,18.83
2018-03-01T01:36:34.671Z,28.70
2018-03-01T01:39:02.225Z,26.67
2018-03-01T01:41:30.589Z,25.07
2018-03-01T01:43:58.900Z,16.57
2018-03-01T01:46:26.449Z,25.80
2018-03-01T01:48:54.017Z,22.90
2018-03-01T01:51:21.570Z,20.50
2018-03-01T01:53:49.142Z,22.20
2018-03-01T01:56:17.480Z,22.00
2018-03-01T01:58:45.049Z,17.87
2018-03-01T02:01:13.369Z,20.03
2018-03-01T02:03:40.969Z,19.10
2018-03-01T02:06:09.284Z,18.40
2018-03-01T02:08:38.248Z,18.77
2018-03-01T02:11:05.809Z,25.23
2018-03-01T02:13:33.401Z,21.30
2018-03-01T02:16:00.952Z,23.87
2018-03-01T02:18:28.516Z,19.93
2018-03-01T02:20:56.094Z,24.83
2018-03-01T02:23:23.650Z,20.23
2018-03-01T02:25:51.986Z,19.50
2018-03-01T02:28:19.544Z,17.37
2018-03-01T02:30:47.118Z,20.90
2018-03-01T02:33:15.444Z,20.40
2018-03-01T02:35:43.041Z,21.73
2018-03-01T02:38:10.601Z,26.33
2018-03-01T02:40:38.537Z,20.37
2018-03-01T02:43:06.157Z,24.63
2018-03-01T02:45:34.584Z,21.20
2018-03-01T02:48:02.136Z,21.03
2018-03-01T02:50:29.688Z,23.52
2018-03-01T02:52:57.249Z,17.50
2018-03-01T02:55:24.804Z,16.17
2018-03-01T02:57:53.132Z,20.47
2018-03-01T03:00:20.696Z,18.23
2018-03-01T03:02:48.315Z,17.13
2018-03-01T03:05:15.868Z,24.13
2018-03-01T03:07:43.464Z,18.17
2018-03-01T03:10:11.088Z,21.03
2018-03-01T03:12:39.336Z,19.58
2018-03-01T03:15:08.485Z,15.83
2018-03-01T03:17:36.054Z,23.27
2018-03-01T03:20:03.634Z,20.20
2018-03-01T03:22:31.995Z,18.03
2018-03-01T03:24:59.572Z,14.05
2018-03-01T03:27:27.132Z,17.43
2018-03-01T03:29:54.697Z,31.92
2018-03-01T03:32:23.042Z,20.60
2018-03-01T03:34:50.650Z,25.63
2018-03-01T03:37:18.209Z,19.67
2018-03-01T03:39:45.779Z,15.50
2018-03-01T03:42:13.334Z,22.30
2018-03-01T03:44:40.905Z,20.70
2018-03-01T03:47:09.226Z,21.80
2018-03-01T03:49:36.790Z,23.57
2018-03-01T03:52:04.569Z,19.40
2018-03-01T03:54:32.921Z,19.50
2018-03-01T03:57:00.477Z,15.47
2018-03-01T03:59:28.864Z,24.23
2018-03-01T04:01:56.474Z,17.20
2018-03-01T04:04:24.033Z,14.13
2018-03-01T04:06:52.365Z,16.33
2018-03-01T04:09:19.917Z,27.60
2018-03-01T04:11:47.485Z,18.00
2018-03-01T04:14:15.817Z,18.20
2018-03-01T04:16:43.392Z,19.97
2018-03-01T04:19:11.717Z,16.70
2018-03-01T04:21:39.324Z,28.63
2018-03-01T04:24:06.881Z,17.58
2018-03-01T04:26:34.475Z,26.60
2018-03-01T04:29:02.034Z,31.90
2018-03-01T04:31:30.453Z,18.50
2018-03-01T04:33:58.047Z,22.17
2018-03-01T04:36:26.368Z,19.80
2018-03-01T04:38:53.909Z,23.00
2018-03-01T04:41:21.435Z,26.33
2018-03-01T04:43:49.033Z,20.07
2018-03-01T04:46:17.353Z,17.20
2018-03-01T04:48:44.907Z,18.97
2018-03-01T04:51:12.477Z,23.30
2018-03-01T04:53:40.064Z,22.80
2018-03-01T04:56:07.588Z,22.52
2018-03-01T04:58:35.167Z,22.93
2018-03-01T05:01:02.704Z,17.05
2018-03-01T05:03:30.257Z,19.27
2018-03-01T05:05:58.025Z,28.12
2018-03-01T05:08:25.646Z,25.43
2018-03-01T05:10:53.188Z,19.07
2018-03-01T05:13:20.717Z,28.00
2018-03-01T05:15:48.260Z,29.10
2018-03-01T05:18:15.864Z,29.53
2018-03-01T05:20:43.567Z,21.23
2018-03-01T05:23:11.140Z,28.60
2018-03-01T05:25:38.696Z,31.43
2018-03-01T05:28:06.222Z,27.57
2018-03-01T05:30:35.313Z,21.47
2018-03-01T05:33:02.851Z,20.33
2018-03-01T05:35:31.941Z,31.70
2018-03-01T05:37:59.475Z,18.97
2018-03-01T05:40:27.010Z,22.07
2018-03-01T05:42:54.627Z,22.90
2018-03-01T05:45:22.388Z,24.80
2018-03-01T05:47:50.760Z,26.70
2018-03-01T05:50:18.306Z,26.93
2018-03-01T05:52:45.879Z,26.97
2018-03-01T05:55:13.434Z,24.27
2018-03-01T05:57:40.961Z,23.63
2018-03-01T06:00:08.525Z,29.67
2018-03-01T06:02:36.105Z,27.27
2018-03-01T06:05:03.643Z,22.75
2018-03-01T06:07:31.957Z,22.40
2018-03-01T06:09:59.513Z,29.00
2018-03-01T06:12:27.094Z,28.47
2018-03-01T06:14:54.629Z,21.90
2018-03-01T06:17:22.984Z,26.87
2018-03-01T06:19:51.281Z,25.27
2018-03-01T06:22:18.825Z,32.72
2018-03-01T06:24:46.368Z,24.30
2018-03-01T06:27:13.886Z,29.33
2018-03-01T06:29:42.209Z,22.60
2018-03-01T06:32:09.753Z,28.60
2018-03-01T06:34:37.321Z,28.33
2018-03-01T06:37:04.863Z,19.20
2018-03-01T06:39:33.165Z,20.33
2018-03-01T06:42:00.717Z,26.90
2018-03-01T06:44:28.266Z,37.60
2018-03-01T06:46:55.827Z,30.57
2018-03-01T06:49:23.391Z,40.03
2018-03-01T06:51:51.020Z,37.80
2018-03-01T06:54:18.659Z,26.75
2018-03-01T06:56:46.266Z,38.77
2018-03-01T06:59:14.586Z,34.17
2018-03-01T07:01:42.126Z,31.97
2018-03-01T07:04:09.673Z,29.20
2018-03-01T07:06:37.205Z,26.87
2018-03-01T07:09:04.775Z,32.70
2018-03-01T07:11:32.376Z,36.80
2018-03-01T07:14:00.646Z,25.23
2018-03-01T07:16:28.196Z,40.50
2018-03-01T07:18:55.738Z,29.47
2018-03-01T07:21:23.308Z,32.17
2018-03-01T07:23:50.868Z,32.43
2018-03-01T07:26:18.419Z,26.10
2018-03-01T07:28:45.932Z,27.87
2018-03-01T07:31:13.452Z,38.40
2018-03-01T07:33:41.128Z,34.97
2018-03-01T07:36:08.654Z,35.30
2018-03-01T07:38:36.997Z,28.97
2018-03-01T07:41:04.541Z,22.50
2018-03-01T07:43:32.085Z,39.73
2018-03-01T07:45:59.621Z,35.83
2018-03-01T07:48:27.149Z,25.73
2018-03-01T07:50:55.460Z,32.77
2018-03-01T07:53:23.829Z,31.37
2018-03-01T07:55:51.405Z,30.70
2018-03-01T07:58:18.923Z,31.37
2018-03-01T08:00:46.471Z,36.20
2018-03-01T08:03:14.006Z,32.30
2018-03-01T08:05:41.527Z,32.27
2018-03-01T08:08:09.072Z,34.93
2018-03-01T08:10:36.605Z,34.58
2018-03-01T08:13:04.169Z,34.07
2018-03-01T08:15:31.698Z,39.05
2018-03-01T08:17:59.249Z,31.50
2018-03-01T08:20:26.786Z,36.63
2018-03-01T08:22:54.311Z,36.10
2018-03-01T08:25:22.709Z,38.00
2018-03-01T08:27:50.217Z,40.88
2018-03-01T08:30:18.527Z,37.63
2018-03-01T08:32:46.357Z,25.00
2018-03-01T08:35:13.919Z,28.20
2018-03-01T08:37:41.462Z,33.80
2018-03-01T08:40:09.014Z,33.20
2018-03-01T08:42:36.527Z,21.80
2018-03-01T08:45:04.069Z,30.93
2018-03-01T08:50:13.805Z,44.95
2018-03-01T08:52:41.349Z,28.70
2018-03-01T08:55:08.934Z,44.40
2018-03-01T08:57:36.479Z,42.03
2018-03-01T09:00:04.005Z,31.25
2018-03-01T09:02:31.581Z,28.67
2018-03-01T09:04:59.147Z,28.87
2018-03-01T09:07:26.715Z,23.63
2018-03-01T09:09:54.279Z,27.30
2018-03-01T09:12:21.861Z,33.33
2018-03-01T09:14:49.369Z,21.33
2018-03-01T09:17:16.897Z,31.73
2018-03-01T09:19:44.444Z,22.42
2018-03-01T09:22:11.977Z,23.07
2018-03-01T09:24:39.524Z,26.98
2018-03-01T09:27:07.090Z,24.87
2018-03-01T09:29:34.657Z,32.47
2018-03-01T09:32:02.228Z,17.20
2018-03-01T09:34:29.881Z,30.53
2018-03-01T09:36:58.229Z,27.20
2018-03-01T09:39:25.764Z,22.27
2018-03-01T09:41:53.283Z,27.95
2018-03-01T09:44:20.892Z,31.48
2018-03-01T09:46:49.696Z,22.42
2018-03-01T09:49:17.221Z,33.40
2018-03-01T09:51:44.784Z,31.80
2018-03-01T09:54:12.317Z,26.03
2018-03-01T09:56:40.329Z,32.13
2018-03-01T09:59:08.666Z,27.03
2018-03-01T10:01:36.194Z,31.53
2018-03-01T10:04:03.791Z,28.07
2018-03-01T10:06:32.093Z,35.10
2018-03-01T10:08:59.658Z,35.65
2018-03-01T10:11:27.212Z,29.57
2018-03-01T10:13:54.751Z,31.13
2018-03-01T10:16:22.326Z,33.97
2018-03-01T10:18:50.825Z,40.72
2018-03-01T10:21:18.390Z,30.80
2018-03-01T10:23:45.922Z,32.40
2018-03-01T10:26:13.494Z,33.23
2018-03-01T10:28:41.027Z,37.83
2018-03-01T10:31:08.542Z,32.43
2018-03-01T10:33:41.777Z,32.87
2018-03-01T10:36:09.305Z,31.73
2018-03-01T10:38:36.855Z,27.83
2018-03-01T10:41:04.385Z,29.83
2018-03-01T10:43:31.929Z,28.13
2018-03-01T10:45:59.688Z,28.77
2018-03-01T10:48:27.212Z,33.10
2018-03-01T10:50:54.762Z,22.27
2018-03-01T10:53:22.293Z,33.93
2018-03-01T10:55:49.872Z,30.60
2018-03-01T10:58:17.400Z,32.33
2018-03-01T11:00:44.961Z,27.57
2018-03-01T11:03:12.505Z,22.30
2018-03-01T11:05:40.039Z,26.83
2018-03-01T11:08:07.598Z,36.23
2018-03-01T11:10:35.146Z,22.13
2018-03-01T11:13:02.684Z,24.77
2018-03-01T11:15:30.210Z,32.00
2018-03-01T11:17:57.785Z,35.03
2018-03-01T11:20:25.498Z,35.00
2018-03-01T11:22:53.035Z,31.57
2018-03-01T11:25:20.591Z,27.83
2018-03-01T11:27:48.103Z,30.80
2018-03-01T11:30:15.633Z,25.10
2018-03-01T11:32:43.921Z,24.20
2018-03-01T11:35:11.477Z,30.57
2018-03-01T11:37:39.043Z,26.77
2018-03-01T11:40:06.575Z,28.87
2018-03-01T11:42:34.121Z,33.60
2018-03-01T11:45:01.670Z,27.20
2018-03-01T11:47:29.227Z,40.80
2018-03-01T11:49:56.769Z,27.37
2018-03-01T11:52:24.407Z,27.15
2018-03-01T11:54:53.150Z,28.60
2018-03-01T11:57:20.825Z,26.30
2018-03-01T11:59:48.390Z,31.13
2018-03-01T12:02:16.691Z,29.60
2018-03-01T12:04:45.017Z,20.90
2018-03-01T12:07:12.549Z,30.17
2018-03-01T12:09:40.120Z,31.27
2018-03-01T12:12:08.421Z,34.20
2018-03-01T12:14:35.980Z,28.70
2018-03-01T12:17:03.523Z,25.03
2018-03-01T12:19:31.050Z,22.48
2018-03-01T12:21:58.609Z,24.73
2018-03-01T12:24:26.125Z,17.90
2018-03-01T12:26:53.673Z,18.40
2018-03-01T12:29:21.197Z,22.70
2018-03-01T12:31:48.730Z,27.00
2018-03-01T12:34:17.042Z,19.57
2018-03-01T12:36:44.569Z,25.05
2018-03-01T12:39:12.130Z,30.37
2018-03-01T12:41:39.662Z,23.98
2018-03-01T12:44:07.214Z,25.97
2018-03-01T12:46:34.802Z,30.83
2018-03-01T12:49:02.619Z,26.73
2018-03-01T12:51:30.274Z,26.50
2018-03-01T12:53:57.796Z,24.50
2018-03-01T12:56:25.324Z,22.70
2018-03-01T12:58:52.856Z,24.57
2018-03-01T13:01:20.443Z,26.97
2018-03-01T13:03:47.955Z,21.80
2018-03-01T13:06:15.498Z,23.23
2018-03-01T13:08:43.061Z,21.63
2018-03-01T13:11:10.589Z,27.25
2018-03-01T13:13:38.136Z,26.93
2018-03-01T13:16:05.665Z,31.92
2018-03-01T13:18:34.120Z,27.60
2018-03-01T13:21:02.403Z,17.27
2018-03-01T13:23:30.118Z,28.48
2018-03-01T13:25:57.703Z,23.33
2018-03-01T13:28:25.232Z,28.07
2018-03-01T13:30:58.433Z,26.83
2018-03-01T13:33:26.005Z,23.10
2018-03-01T13:35:53.593Z,29.93
2018-03-01T13:38:21.913Z,22.23
2018-03-01T13:40:49.473Z,25.23
2018-03-01T13:43:31.880Z,24.23
2018-03-01T13:46:01.793Z,30.33
2018-03-01T13:48:30.296Z,24.57
2018-03-01T13:50:57.823Z,33.47
2018-03-01T13:53:25.374Z,29.60
2018-03-01T13:55:52.900Z,35.43
2018-03-01T13:58:20.445Z,27.83
2018-03-01T14:00:47.967Z,33.80
2018-03-01T14:03:16.282Z,30.10
2018-03-01T14:09:03.213Z,29.73
2018-03-01T14:11:30.744Z,33.50
2018-03-01T14:14:10.011Z,30.70
2018-03-01T14:16:37.550Z,38.97
2018-03-01T14:19:09.487Z,38.30
2018-03-01T14:21:41.611Z,35.08
2018-03-01T14:24:10.773Z,28.55
2018-03-01T14:29:39.829Z,37.85
2018-03-01T14:32:07.359Z,33.13
2018-03-01T14:34:34.934Z,29.77
2018-03-01T14:37:02.461Z,26.57
2018-03-01T14:39:30.012Z,30.83
2018-03-01T14:41:57.561Z,25.50
2018-03-01T14:44:25.089Z,31.50
2018-03-01T14:46:52.632Z,35.07
2018-03-01T14:49:20.153Z,27.10
2018-03-01T14:51:48.590Z,32.85
2018-03-01T14:54:16.113Z,37.83
2018-03-01T14:56:44.130Z,28.70
2018-03-01T14:59:11.709Z,36.37
2018-03-01T15:01:39.264Z,30.33
2018-03-01T15:04:06.807Z,27.77
2018-03-01T15:06:34.347Z,24.63
2018-03-01T15:09:01.932Z,24.60
2018-03-01T15:11:30.321Z,33.90
2018-03-01T15:13:57.862Z,32.17
2018-03-01T15:16:25.707Z,43.47
2018-03-01T15:18:53.260Z,34.13
2018-03-01T15:21:20.826Z,29.73
2018-03-01T15:23:48.390Z,33.10
2018-03-01T15:26:15.955Z,35.53
2018-03-01T15:28:43.499Z,31.60
2018-03-01T15:31:11.051Z,29.17
2018-03-01T15:33:38.576Z,20.97
2018-03-01T15:36:06.090Z,31.47
2018-03-01T15:38:33.661Z,29.40
2018-03-01T15:41:01.223Z,33.57
2018-03-01T15:43:28.781Z,35.43
2018-03-01T15:45:56.313Z,32.13
2018-03-01T15:48:23.853Z,27.30
2018-03-01T15:50:51.394Z,29.00
2018-03-01T15:53:18.918Z,37.80
2018-03-01T15:55:46.466Z,32.20
2018-03-01T15:58:14.061Z,35.87
2018-03-01T16:00:42.380Z,31.52
2018-03-01T16:03:09.958Z,37.73
2018-03-01T16:05:38.294Z,31.23
2018-03-01T16:08:05.834Z,35.43
2018-03-01T16:10:33.368Z,39.87
2018-03-01T16:13:00.899Z,26.10
2018-03-01T16:15:28.660Z,26.40
2018-03-01T16:17:56.196Z,33.27
2018-03-01T16:20:23.797Z,26.90
2018-03-01T16:22:51.370Z,31.27
2018-03-01T16:25:18.901Z,36.17
2018-03-01T16:27:47.226Z,33.93
2018-03-01T16:30:14.768Z,28.90
2018-03-01T16:32:42.325Z,34.58
2018-03-01T16:35:09.917Z,31.17
2018-03-01T16:37:37.453Z,28.67
2018-03-01T16:40:05.008Z,28.90
2018-03-01T16:42:32.652Z,31.63
2018-03-01T16:45:00.200Z,27.90
2018-03-01T16:47:27.749Z,69.13
2018-03-01T16:49:55.301Z,31.77
2018-03-01T16:52:22.816Z,28.80
2018-03-01T16:54:50.377Z,30.30
2018-03-01T16:57:17.920Z,34.90
2018-03-01T16:59:45.432Z,36.20
2018-03-01T17:02:12.989Z,27.73
2018-03-01T17:04:40.521Z,32.63
2018-03-01T17:07:08.873Z,44.20
2018-03-01T17:09:37.213Z,36.03
2018-03-01T17:12:04.741Z,38.20
2018-03-01T17:14:32.576Z,31.03
2018-03-01T17:17:01.053Z,37.75
2018-03-01T17:19:28.601Z,40.87
2018-03-01T17:21:56.149Z,34.77
2018-03-01T17:24:23.702Z,30.60
2018-03-01T17:26:55.049Z,40.13
2018-03-01T17:29:23.408Z,31.67
2018-03-01T17:31:51.542Z,35.07
2018-03-01T17:36:53.938Z,35.70
2018-03-01T17:39:21.470Z,35.53
2018-03-01T17:41:49.012Z,37.07
2018-03-01T17:44:16.703Z,31.03
2018-03-01T17:46:44.355Z,31.37
2018-03-01T17:49:12.749Z,42.30
2018-03-01T17:51:40.274Z,38.63
2018-03-01T17:54:07.867Z,40.63
2018-03-01T17:56:35.408Z,42.53
2018-03-01T17:59:02.962Z,33.73
2018-03-01T18:01:31.247Z,43.70
2018-03-01T18:03:59.587Z,33.93
2018-03-01T18:06:27.143Z,43.83
2018-03-01T18:08:55.449Z,37.17
2018-03-01T18:11:23.064Z,53.43
2018-03-01T18:13:50.607Z,41.23
2018-03-01T18:16:18.173Z,46.83
2018-03-01T18:18:45.701Z,39.70
2018-03-01T18:21:13.326Z,42.50
2018-03-01T18:23:41.638Z,34.23
2018-03-01T18:26:09.177Z,33.00
2018-03-01T18:28:36.742Z,33.50
2018-03-01T18:31:04.264Z,41.80
2018-03-01T18:33:31.813Z,38.20
2018-03-01T18:35:59.341Z,38.45
2018-03-01T18:38:27.735Z,33.80
2018-03-01T18:40:55.263Z,47.57
2018-03-01T18:43:22.785Z,51.03
2018-03-01T18:45:50.518Z,35.17
2018-03-01T18:48:18.823Z,41.17
2018-03-01T18:50:46.363Z,49.57
2018-03-01T18:53:13.903Z,33.50
2018-03-01T18:55:41.462Z,33.00
2018-03-01T18:58:09.093Z,38.33
2018-03-01T19:00:36.669Z,32.70
2018-03-01T19:03:04.237Z,35.63
2018-03-01T19:05:32.572Z,47.90
2018-03-01T19:08:00.442Z,40.43
2018-03-01T19:10:28.017Z,31.62
2018-03-01T19:12:55.621Z,38.97
2018-03-01T19:15:23.159Z,49.00
2018-03-01T19:17:50.764Z,36.90
2018-03-01T19:20:18.286Z,40.63
2018-03-01T19:22:46.593Z,39.03
2018-03-01T19:25:14.145Z,42.83
2018-03-01T19:27:41.660Z,36.53
2018-03-01T19:30:09.288Z,39.00
2018-03-01T19:32:36.805Z,54.27
2018-03-01T19:35:04.355Z,44.80
2018-03-01T19:37:33.424Z,46.03
2018-03-01T19:40:00.953Z,44.43
2018-03-01T19:42:28.493Z,37.55
2018-03-01T19:44:56.031Z,43.37
2018-03-01T19:47:23.589Z,43.43
2018-03-01T19:49:51.151Z,38.13
2018-03-01T19:52:18.691Z,40.80
2018-03-01T19:54:46.244Z,36.10
2018-03-01T19:57:13.805Z,51.83
2018-03-01T19:59:42.111Z,40.93
2018-03-01T20:02:09.638Z,44.43
2018-03-01T20:04:37.209Z,46.43
2018-03-01T20:07:04.746Z,35.77
2018-03-01T20:09:32.281Z,41.07
2018-03-01T20:11:59.837Z,37.40
2018-03-01T20:14:27.384Z,43.60
2018-03-01T20:16:54.941Z,39.60
2018-03-01T20:19:22.724Z,53.47
2018-03-01T20:21:51.062Z,39.23
2018-03-01T20:24:18.658Z,41.55
2018-03-01T20:26:46.211Z,39.30
2018-03-01T20:29:14.759Z,51.15
2018-03-01T20:31:42.400Z,38.67
2018-03-01T20:34:10.752Z,37.17
2018-03-01T20:39:22.673Z,42.20
2018-03-01T20:41:50.239Z,42.00
2018-03-01T20:44:17.859Z,49.70
2018-03-01T20:46:46.444Z,56.83
2018-03-01T20:49:13.980Z,45.65
2018-03-01T20:51:41.777Z,46.70
2018-03-01T20:54:09.306Z,48.03
2018-03-01T20:56:36.865Z,48.27
2018-03-01T20:59:04.413Z,38.33
2018-03-01T21:01:31.973Z,40.93
2018-03-01T21:04:00.411Z,43.83
2018-03-01T21:06:27.954Z,41.13
2018-03-01T21:08:55.682Z,43.50
2018-03-01T21:11:23.205Z,34.03
2018-03-01T21:13:50.739Z,56.10
2018-03-01T21:16:18.341Z,38.73
2018-03-01T21:18:45.892Z,43.87
2018-03-01T21:21:14.268Z,42.65
2018-03-01T21:23:42.580Z,46.73
2018-03-01T21:26:10.180Z,55.90
2018-03-01T21:28:39.478Z,43.47
2018-03-01T21:31:07.025Z,45.70
2018-03-01T21:33:34.590Z,68.47
2018-03-01T21:36:02.138Z,41.80
2018-03-01T21:38:29.676Z,44.83
2018-03-01T21:40:57.239Z,43.33
2018-03-01T21:43:24.813Z,42.77
2018-03-01T21:45:52.354Z,62.33
2018-03-01T21:48:21.411Z,45.00
2018-03-01T21:50:48.946Z,42.33
2018-03-01T21:53:16.493Z,55.23
2018-03-01T21:55:44.041Z,40.50
2018-03-01T21:58:11.560Z,75.50
2018-03-01T22:00:39.111Z,52.87
2018-03-01T22:03:07.570Z,56.15
2018-03-01T22:05:35.153Z,55.93
2018-03-01T22:08:02.682Z,54.42
2018-03-01T22:10:30.237Z,44.80
2018-03-01T22:12:57.775Z,40.97
2018-03-01T22:15:25.328Z,61.43
2018-03-01T22:17:52.876Z,50.25
2018-03-01T22:20:20.400Z,54.47
2018-03-01T22:22:48.017Z,54.70
2018-03-01T22:25:15.716Z,47.03
2018-03-01T22:27:43.264Z,46.10
2018-03-01T22:30:10.805Z,45.70
2018-03-01T22:32:39.143Z,40.50
2018-03-01T22:35:06.734Z,47.80
2018-03-01T22:37:34.261Z,47.87
2018-03-01T22:40:01.834Z,32.03
2018-03-01T22:42:30.158Z,46.30
2018-03-01T22:44:59.187Z,49.37
2018-03-01T22:47:26.923Z,45.15
2018-03-01T22:49:55.852Z,40.57
2018-03-01T22:52:24.299Z,43.50
2018-03-01T22:54:51.818Z,53.38
2018-03-01T22:57:20.144Z,44.57
2018-03-01T22:59:47.884Z,34.37
2018-03-01T23:02:15.443Z,44.57
2018-03-01T23:04:43.069Z,40.40
2018-03-01T23:07:10.635Z,41.50
2018-03-01T23:09:38.165Z,41.90
2018-03-01T23:12:05.720Z,42.63
2018-03-01T23:14:33.350Z,43.45
2018-03-01T23:17:00.874Z,39.73
2018-03-01T23:19:28.454Z,38.90
2018-03-01T23:21:56.039Z,35.93
2018-03-01T23:24:23.618Z,45.20
2018-03-01T23:26:51.187Z,47.50
2018-03-01T23:29:19.579Z,42.90
2018-03-01T23:31:47.884Z,40.63
2018-03-01T23:34:15.430Z,41.67
2018-03-01T23:36:45.016Z,32.13
2018-03-01T23:39:13.934Z,42.87
2018-03-01T23:41:41.485Z,47.00
2018-03-01T23:44:09.036Z,46.77
2018-03-01T23:46:37.415Z,39.13
2018-03-01T23:49:04.941Z,36.47
2018-03-01T23:51:33.347Z,40.12
2018-03-01T23:54:00.906Z,31.17
2018-03-01T23:56:28.508Z,47.70
2018-03-01T23:58:56.827Z,54.00
